createdAt,value
2024-02-24T00:00:13.165Z,169.00
2024-02-24T00:01:15.158Z,168.00
2024-02-24T00:02:17.222Z,167.33
2024-02-24T00:03:21.396Z,166.33
2024-02-24T00:04:24.766Z,165.83
2024-02-24T00:05:27.537Z,165.00
2024-02-24T00:06:29.576Z,165.00
2024-02-24T00:07:31.573Z,164.33
2024-02-24T00:08:36.659Z,162.83
2024-02-24T00:09:38.713Z,161.67
2024-02-24T00:10:40.781Z,160.83
2024-02-24T00:11:42.885Z,160.00
2024-02-24T00:12:44.924Z,160.83
2024-02-24T00:13:46.945Z,161.00
2024-02-24T00:14:48.986Z,160.83
2024-02-24T00:15:52.074Z,159.83
2024-02-24T00:16:54.073Z,159.00
2024-02-24T00:17:56.092Z,159.00
2024-02-24T00:19:00.713Z,159.00
2024-02-24T00:20:02.964Z,158.33
2024-02-24T00:21:05.208Z,159.00
2024-02-24T00:22:07.263Z,159.00
2024-02-24T00:23:09.303Z,158.17
2024-02-24T00:24:11.400Z,157.83
2024-02-24T00:25:13.423Z,157.00
2024-02-24T00:26:15.432Z,157.00
2024-02-24T00:27:17.457Z,157.00
2024-02-24T00:28:19.541Z,157.00
2024-02-24T00:29:21.570Z,157.00
2024-02-24T00:30:26.298Z,157.00
2024-02-24T00:31:28.260Z,157.83
2024-02-24T00:32:30.351Z,158.00
2024-02-24T00:33:32.393Z,158.00
2024-02-24T00:34:37.294Z,158.33
2024-02-24T00:35:40.516Z,159.17
2024-02-24T00:36:42.671Z,160.17
2024-02-24T00:37:44.628Z,161.00
2024-02-24T00:38:46.640Z,161.00
2024-02-24T00:39:48.663Z,161.67
2024-02-24T00:40:50.662Z,162.67
2024-02-24T00:41:53.579Z,165.67
2024-02-24T00:42:55.530Z,171.50
2024-02-24T00:43:57.514Z,178.17
2024-02-24T00:44:59.509Z,184.00
2024-02-24T00:46:01.649Z,187.00
2024-02-24T00:47:03.978Z,188.67
2024-02-24T00:48:06.374Z,190.17
2024-02-24T00:49:10.531Z,192.67
2024-02-24T00:50:12.523Z,196.50
2024-02-24T00:51:14.481Z,199.83
2024-02-24T00:52:16.461Z,200.00
2024-02-24T00:53:18.511Z,199.83
2024-02-24T00:54:20.507Z,197.50
2024-02-24T00:55:22.673Z,195.83
2024-02-24T00:56:24.655Z,194.67
2024-02-24T00:57:26.669Z,193.67
2024-02-24T00:58:29.211Z,191.83
2024-02-24T00:59:31.357Z,189.00
2024-02-24T01:00:33.327Z,184.33
2024-02-24T01:01:35.275Z,181.67
2024-02-24T01:02:37.373Z,179.83
2024-02-24T01:03:39.397Z,178.17
2024-02-24T01:04:41.456Z,177.33
2024-02-24T01:05:43.893Z,177.00
2024-02-24T01:06:45.972Z,177.00
2024-02-24T01:07:48.027Z,177.00
2024-02-24T01:08:50.096Z,177.00
2024-02-24T01:09:52.102Z,177.00
2024-02-24T01:10:54.122Z,177.33
2024-02-24T01:11:56.149Z,178.00
2024-02-24T01:12:58.143Z,178.00
2024-02-24T01:14:00.753Z,178.00
2024-02-24T01:15:03.177Z,178.00
2024-02-24T01:16:05.425Z,178.00
2024-02-24T01:17:11.688Z,178.00
2024-02-24T01:18:13.946Z,177.17
2024-02-24T01:19:16.112Z,177.00
2024-02-24T01:20:18.188Z,175.83
2024-02-24T01:21:20.194Z,173.50
2024-02-24T01:22:22.183Z,169.83
2024-02-24T01:23:25.720Z,167.83
2024-02-24T01:24:27.732Z,165.83
2024-02-24T01:25:29.700Z,163.17
2024-02-24T01:26:31.749Z,161.33
2024-02-24T01:27:33.770Z,161.83
2024-02-24T01:28:37.989Z,162.00
2024-02-24T01:29:40.094Z,162.00
2024-02-24T01:30:42.120Z,162.00
2024-02-24T01:31:45.949Z,159.83
2024-02-24T01:32:48.104Z,156.00
2024-02-24T01:33:51.337Z,154.33
2024-02-24T01:34:53.460Z,153.00
2024-02-24T01:35:56.226Z,153.00
2024-02-24T01:36:58.187Z,153.00
2024-02-24T01:38:00.170Z,151.67
2024-02-24T01:39:02.195Z,150.33
2024-02-24T01:40:06.411Z,148.83
2024-02-24T01:41:08.482Z,147.00
2024-02-24T01:42:10.592Z,146.00
2024-02-24T01:43:28.278Z,146.00
2024-02-24T01:44:30.367Z,146.00
2024-02-24T01:45:32.517Z,146.67
2024-02-24T01:46:34.525Z,147.00
2024-02-24T01:47:36.626Z,147.00
2024-02-24T01:48:38.867Z,148.00
2024-02-24T01:49:41.020Z,148.33
2024-02-24T01:50:43.082Z,149.33
2024-02-24T01:51:45.075Z,150.83
2024-02-24T01:52:48.356Z,153.00
2024-02-24T01:53:50.385Z,157.00
2024-02-24T01:54:54.853Z,160.67
2024-02-24T01:55:56.844Z,164.50
2024-02-24T01:56:58.835Z,167.00
2024-02-24T01:58:03.681Z,169.83
2024-02-24T01:59:05.828Z,171.00
2024-02-24T02:00:11.027Z,171.00
2024-02-24T02:01:13.091Z,171.00
2024-02-24T02:02:17.014Z,171.00
2024-02-24T02:03:19.030Z,171.67
2024-02-24T02:04:21.091Z,173.17
2024-02-24T02:05:25.766Z,174.50
2024-02-24T02:06:30.194Z,177.00
2024-02-24T02:07:32.386Z,180.67
2024-02-24T02:08:34.352Z,184.17
2024-02-24T02:09:36.312Z,185.50
2024-02-24T02:10:48.281Z,186.00
2024-02-24T02:11:56.702Z,186.00
2024-02-24T02:13:05.060Z,185.00
2024-02-24T02:14:07.180Z,184.50
2024-02-24T02:15:09.978Z,185.00
2024-02-24T02:16:12.036Z,185.00
2024-02-24T02:17:14.098Z,185.17
2024-02-24T02:18:16.259Z,186.00
2024-02-24T02:19:18.422Z,186.33
2024-02-24T02:20:20.480Z,187.50
2024-02-24T02:21:22.476Z,189.17
2024-02-24T02:22:24.840Z,190.67
2024-02-24T02:23:26.844Z,191.00
2024-02-24T02:24:28.892Z,191.83
2024-02-24T02:25:30.946Z,192.50
2024-02-24T02:26:32.959Z,193.00
2024-02-24T02:27:34.969Z,193.83
2024-02-24T02:28:36.960Z,194.00
2024-02-24T02:29:39.058Z,194.00
2024-02-24T02:30:41.104Z,194.00
2024-02-24T02:31:43.059Z,194.00
2024-02-24T02:32:45.534Z,194.00
2024-02-24T02:33:47.892Z,194.00
2024-02-24T02:34:49.938Z,193.83
2024-02-24T02:35:52.021Z,193.00
2024-02-24T02:36:54.079Z,193.00
2024-02-24T02:37:56.060Z,193.00
2024-02-24T02:38:58.028Z,193.00
2024-02-24T02:40:03.548Z,192.67
2024-02-24T02:41:09.453Z,192.00
2024-02-24T02:42:11.866Z,192.00
2024-02-24T02:43:14.017Z,192.83
2024-02-24T02:44:16.074Z,193.00
2024-02-24T02:45:18.091Z,193.83
2024-02-24T02:46:20.440Z,194.00
2024-02-24T02:47:24.182Z,194.67
2024-02-24T02:48:26.858Z,195.00
2024-02-24T02:49:30.495Z,195.00
2024-02-24T02:50:32.595Z,195.00
2024-02-24T02:51:34.655Z,194.83
2024-02-24T02:52:36.653Z,194.50
2024-02-24T02:53:38.707Z,195.00
2024-02-24T02:54:40.711Z,195.00
2024-02-24T02:55:42.740Z,195.83
2024-02-24T02:56:45.467Z,196.33
2024-02-24T02:57:47.986Z,198.17
2024-02-24T02:58:49.973Z,200.50
2024-02-24T02:59:51.968Z,203.00
2024-02-24T03:00:55.431Z,204.50
2024-02-24T03:02:02.626Z,206.33
2024-02-24T03:03:04.821Z,208.17
2024-02-24T03:04:06.874Z,210.17
2024-02-24T03:05:09.274Z,212.17
2024-02-24T03:06:11.435Z,213.50
2024-02-24T03:07:13.612Z,214.00
2024-02-24T03:08:15.600Z,213.67
2024-02-24T03:09:17.603Z,213.00
2024-02-24T03:10:22.447Z,213.00
2024-02-24T03:11:24.566Z,212.33
2024-02-24T03:12:26.909Z,211.67
2024-02-24T03:13:28.959Z,211.00
2024-02-24T03:14:32.031Z,211.00
2024-02-24T03:15:35.785Z,210.17
2024-02-24T03:16:38.085Z,209.83
2024-02-24T03:17:40.716Z,209.00
2024-02-24T03:18:46.322Z,209.00
2024-02-24T03:19:48.396Z,209.00
2024-02-24T03:20:50.564Z,209.00
2024-02-24T03:21:52.592Z,209.83
2024-02-24T03:22:54.622Z,211.33
2024-02-24T03:23:56.955Z,212.83
2024-02-24T03:24:58.898Z,214.67
2024-02-24T03:26:00.987Z,216.00
2024-02-24T03:27:03.003Z,216.00
2024-02-24T03:28:07.933Z,215.17
2024-02-24T03:29:09.965Z,215.00
2024-02-24T03:30:12.500Z,215.00
2024-02-24T03:31:14.624Z,215.00
2024-02-24T03:32:16.613Z,215.00
2024-02-24T03:33:19.467Z,213.17
2024-02-24T03:34:21.605Z,207.33
2024-02-24T03:35:23.727Z,201.50
2024-02-24T03:36:25.730Z,198.83
2024-02-24T03:37:27.711Z,198.33
2024-02-24T03:38:29.718Z,199.50
2024-02-24T03:39:32.407Z,200.33
2024-02-24T03:40:34.400Z,200.67
2024-02-24T03:41:36.620Z,200.00
2024-02-24T03:42:38.689Z,200.00
2024-02-24T03:43:40.654Z,200.33
2024-02-24T03:44:42.701Z,201.00
2024-02-24T03:45:44.740Z,201.50
2024-02-24T03:46:46.701Z,202.00
2024-02-24T03:47:48.898Z,201.17
2024-02-24T03:48:53.629Z,200.17
2024-02-24T03:49:55.662Z,200.00
2024-02-24T03:50:58.130Z,199.67
2024-02-24T03:52:00.108Z,199.00
2024-02-24T03:53:02.103Z,198.33
2024-02-24T03:54:04.166Z,197.50
2024-02-24T03:55:06.182Z,196.00
2024-02-24T03:56:08.546Z,192.50
2024-02-24T03:57:10.624Z,189.00
2024-02-24T03:58:12.914Z,187.33
2024-02-24T03:59:14.913Z,185.33
2024-02-24T04:00:17.235Z,183.50
2024-02-24T04:01:19.259Z,183.00
2024-02-24T04:02:27.295Z,181.67
2024-02-24T04:03:29.451Z,179.83
2024-02-24T04:04:31.463Z,179.00
2024-02-24T04:05:33.493Z,179.00
2024-02-24T04:06:35.574Z,179.00
2024-02-24T04:07:37.653Z,179.00
2024-02-24T04:08:39.697Z,179.00
2024-02-24T04:09:41.960Z,179.00
2024-02-24T04:10:47.161Z,179.00
2024-02-24T04:11:50.049Z,178.33
2024-02-24T04:12:52.145Z,176.17
2024-02-24T04:13:54.140Z,175.67
2024-02-24T04:14:56.159Z,175.00
2024-02-24T04:15:58.149Z,174.00
2024-02-24T04:17:00.223Z,173.00
2024-02-24T04:18:02.504Z,173.33
2024-02-24T04:19:04.615Z,177.00
2024-02-24T04:20:09.886Z,184.83
2024-02-24T04:21:11.923Z,192.17
2024-02-24T04:22:13.875Z,200.33
2024-02-24T04:23:15.985Z,207.17
2024-02-24T04:24:18.022Z,211.83
2024-02-24T04:25:19.983Z,214.83
2024-02-24T04:26:22.024Z,210.83
2024-02-24T04:27:24.070Z,211.67
2024-02-24T04:28:26.388Z,212.17
2024-02-24T04:29:28.426Z,211.17
2024-02-24T04:30:30.481Z,210.33
2024-02-24T04:31:32.493Z,210.17
2024-02-24T04:32:39.294Z,209.00
2024-02-24T04:33:41.390Z,209.83
2024-02-24T04:34:43.484Z,215.67
2024-02-24T04:35:45.641Z,221.83
2024-02-24T04:36:47.746Z,221.67
2024-02-24T04:37:49.705Z,219.00
2024-02-24T04:38:51.803Z,217.67
2024-02-24T04:39:53.771Z,216.83
2024-02-24T04:40:55.813Z,216.00
2024-02-24T04:41:57.863Z,216.50
2024-02-24T04:42:59.948Z,218.33
2024-02-24T04:44:01.907Z,222.17
2024-02-24T04:45:04.133Z,225.33
2024-02-24T04:46:06.133Z,226.83
2024-02-24T04:47:08.221Z,226.67
2024-02-24T04:48:10.467Z,226.00
2024-02-24T04:49:12.689Z,225.17
2024-02-24T04:50:15.481Z,225.00
2024-02-24T04:51:17.566Z,224.33
2024-02-24T04:52:19.549Z,223.17
2024-02-24T04:53:21.937Z,223.67
2024-02-24T04:54:23.991Z,217.33
2024-02-24T04:55:26.028Z,197.50
2024-02-24T04:56:28.054Z,191.67
2024-02-24T04:57:30.050Z,194.17
2024-02-24T04:58:32.022Z,194.33
2024-02-24T04:59:34.049Z,194.17
2024-02-24T05:00:36.056Z,183.17
2024-02-24T05:01:38.162Z,177.83
2024-02-24T05:02:40.244Z,176.17
2024-02-24T05:03:42.284Z,175.00
2024-02-24T05:04:44.294Z,175.67
2024-02-24T05:05:46.288Z,179.67
2024-02-24T05:06:51.302Z,184.67
2024-02-24T05:07:53.336Z,212.17
2024-02-24T05:08:56.015Z,212.33
2024-02-24T05:09:58.027Z,213.17
2024-02-24T05:11:01.611Z,214.50
2024-02-24T05:12:03.772Z,211.67
2024-02-24T05:13:08.540Z,211.00
2024-02-24T05:14:10.675Z,210.83
2024-02-24T05:15:12.705Z,210.00
2024-02-24T05:16:15.469Z,209.17
2024-02-24T05:17:17.523Z,193.00
2024-02-24T05:18:19.696Z,180.67
2024-02-24T05:19:22.537Z,185.00
2024-02-24T05:20:24.646Z,184.50
2024-02-24T05:21:26.692Z,176.83
2024-02-24T05:22:28.753Z,170.33
2024-02-24T05:23:30.774Z,174.00
2024-02-24T05:24:32.953Z,176.50
2024-02-24T05:25:35.340Z,178.67
2024-02-24T05:26:37.358Z,181.33
2024-02-24T05:27:39.373Z,187.83
2024-02-24T05:28:41.364Z,199.00
2024-02-24T05:29:47.374Z,207.00
2024-02-24T05:30:49.555Z,209.17
2024-02-24T05:31:51.542Z,206.83
2024-02-24T05:32:57.474Z,205.17
2024-02-24T05:34:08.573Z,205.50
2024-02-24T05:35:10.892Z,205.50
2024-02-24T05:36:12.896Z,204.67
2024-02-24T05:37:15.133Z,203.83
2024-02-24T05:38:17.234Z,202.50
2024-02-24T05:39:19.250Z,201.33
2024-02-24T05:40:21.241Z,200.17
2024-02-24T05:41:23.278Z,199.33
2024-02-24T05:42:32.769Z,199.00
2024-02-24T05:43:34.993Z,200.17
2024-02-24T05:44:36.996Z,202.00
2024-02-24T05:45:39.758Z,204.33
2024-02-24T05:46:41.776Z,208.50
2024-02-24T05:47:43.833Z,212.00
2024-02-24T05:48:47.028Z,213.33
2024-02-24T05:49:49.249Z,214.83
2024-02-24T05:50:51.529Z,214.33
2024-02-24T05:51:54.750Z,213.17
2024-02-24T05:52:56.794Z,211.50
2024-02-24T05:53:58.839Z,210.67
2024-02-24T05:55:00.984Z,208.00
2024-02-24T05:56:02.998Z,202.33
2024-02-24T05:57:05.900Z,198.00
2024-02-24T05:58:07.895Z,197.67
2024-02-24T05:59:09.877Z,204.83
2024-02-24T06:00:12.618Z,210.50
2024-02-24T06:01:15.506Z,206.00
2024-02-24T06:02:17.925Z,195.00
2024-02-24T06:03:20.492Z,182.83
2024-02-24T06:04:22.444Z,169.33
2024-02-24T06:05:24.440Z,159.50
2024-02-24T06:06:27.694Z,154.00
2024-02-24T06:07:29.892Z,153.33
2024-02-24T06:08:33.734Z,150.33
2024-02-24T06:09:35.795Z,146.83
2024-02-24T06:10:38.803Z,143.00
2024-02-24T06:11:41.005Z,141.33
2024-02-24T06:12:43.070Z,141.50
2024-02-24T06:13:47.354Z,142.00
2024-02-24T06:14:49.395Z,142.33
2024-02-24T06:15:51.438Z,142.50
2024-02-24T06:16:53.414Z,141.17
2024-02-24T06:17:55.514Z,139.83
2024-02-24T06:18:58.071Z,133.17
2024-02-24T06:20:00.124Z,125.00
2024-02-24T06:21:02.881Z,119.17
2024-02-24T06:22:05.024Z,112.50
2024-02-24T06:23:07.631Z,107.67
2024-02-24T06:24:09.739Z,107.83
2024-02-24T06:25:11.886Z,110.83
2024-02-24T06:26:15.619Z,115.00
2024-02-24T06:27:17.609Z,118.33
2024-02-24T06:28:19.634Z,120.00
2024-02-24T06:29:21.628Z,121.00
2024-02-24T06:30:23.653Z,121.83
2024-02-24T06:31:25.651Z,120.83
2024-02-24T06:32:27.809Z,118.17
2024-02-24T06:33:29.919Z,112.00
2024-02-24T06:34:32.004Z,108.33
2024-02-24T06:35:34.380Z,107.67
2024-02-24T06:36:36.555Z,106.50
2024-02-24T06:37:40.438Z,106.00
2024-02-24T06:38:42.640Z,107.50
2024-02-24T06:39:44.638Z,108.50
2024-02-24T06:40:47.021Z,109.83
2024-02-24T06:41:49.285Z,111.83
2024-02-24T06:42:51.407Z,113.50
2024-02-24T06:43:53.393Z,114.50
2024-02-24T06:44:55.427Z,115.00
2024-02-24T06:45:59.641Z,115.00
2024-02-24T06:47:04.378Z,116.00
2024-02-24T06:48:10.793Z,116.33
2024-02-24T06:49:12.987Z,117.00
2024-02-24T06:50:15.046Z,117.00
2024-02-24T06:51:17.064Z,117.83
2024-02-24T06:52:19.009Z,118.67
2024-02-24T06:53:21.117Z,119.00
2024-02-24T06:54:23.121Z,117.83
2024-02-24T06:55:25.447Z,116.33
2024-02-24T06:56:27.491Z,115.00
2024-02-24T06:57:29.530Z,114.67
2024-02-24T06:58:31.540Z,116.00
2024-02-24T06:59:33.522Z,122.17
2024-02-24T07:00:36.236Z,124.00
2024-02-24T07:01:38.264Z,123.67
2024-02-24T07:02:43.316Z,122.50
2024-02-24T07:03:45.344Z,120.50
2024-02-24T07:04:47.310Z,118.17
2024-02-24T07:05:49.463Z,116.00
2024-02-24T07:06:54.205Z,117.00
2024-02-24T07:07:56.486Z,119.33
2024-02-24T07:08:58.587Z,121.50
2024-02-24T07:10:00.857Z,124.83
2024-02-24T07:11:02.863Z,123.17
2024-02-24T07:12:05.304Z,110.50
2024-02-24T07:13:07.445Z,87.33
2024-02-24T07:14:10.840Z,78.67
2024-02-24T07:15:13.112Z,73.50
2024-02-24T07:16:16.842Z,69.50
2024-02-24T07:17:18.859Z,63.50
2024-02-24T07:18:20.930Z,59.50
2024-02-24T07:19:22.951Z,57.67
2024-02-24T07:20:27.299Z,56.00
2024-02-24T07:21:29.282Z,55.50
2024-02-24T07:22:31.352Z,53.83
2024-02-24T07:23:33.324Z,52.67
2024-02-24T07:24:35.265Z,52.00
2024-02-24T07:25:41.251Z,52.33
2024-02-24T07:26:52.273Z,53.17
2024-02-24T07:27:54.588Z,53.33
2024-02-24T07:28:56.584Z,53.00
2024-02-24T07:30:01.558Z,52.33
2024-02-24T07:31:04.361Z,51.17
2024-02-24T07:32:06.566Z,51.00
2024-02-24T07:33:08.688Z,51.00
2024-02-24T07:34:11.880Z,51.00
2024-02-24T07:35:13.983Z,50.33
2024-02-24T07:36:16.302Z,50.00
2024-02-24T07:37:18.710Z,50.00
2024-02-24T07:38:21.461Z,50.00
2024-02-24T07:39:23.461Z,49.33
2024-02-24T07:40:25.402Z,48.67
2024-02-24T07:41:30.169Z,48.00
2024-02-24T07:42:32.339Z,48.17
2024-02-24T07:43:34.427Z,49.00
2024-02-24T07:44:36.515Z,49.00
2024-02-24T07:45:38.534Z,49.00
2024-02-24T07:46:40.586Z,49.00
2024-02-24T07:47:42.604Z,50.00
2024-02-24T07:48:44.673Z,50.00
2024-02-24T07:49:46.895Z,50.00
2024-02-24T07:50:49.079Z,50.00
2024-02-24T07:51:53.803Z,50.00
2024-02-24T07:52:55.762Z,49.50
2024-02-24T07:53:57.934Z,49.00
2024-02-24T07:54:59.900Z,48.33
2024-02-24T07:56:01.934Z,48.00
2024-02-24T07:57:03.957Z,48.00
2024-02-24T07:58:05.937Z,48.17
2024-02-24T07:59:07.892Z,49.00
2024-02-24T08:00:10.435Z,49.67
2024-02-24T08:01:12.439Z,52.67
2024-02-24T08:02:14.451Z,57.83
2024-02-24T08:03:16.701Z,60.67
2024-02-24T08:04:18.689Z,61.00
2024-02-24T08:05:22.252Z,60.50
2024-02-24T08:06:24.261Z,60.00
2024-02-24T08:07:26.233Z,59.50
2024-02-24T08:08:28.305Z,59.00
2024-02-24T08:09:30.374Z,58.67
2024-02-24T08:10:34.873Z,58.00
2024-02-24T08:11:42.007Z,58.83
2024-02-24T08:12:44.422Z,59.33
2024-02-24T08:13:47.300Z,60.00
2024-02-24T08:14:49.447Z,60.00
2024-02-24T08:15:54.365Z,60.00
2024-02-24T08:16:56.341Z,60.00
2024-02-24T08:17:58.380Z,60.00
2024-02-24T08:19:00.710Z,60.00
2024-02-24T08:20:03.030Z,60.00
2024-02-24T08:21:08.296Z,60.83
2024-02-24T08:22:10.348Z,63.00
2024-02-24T08:23:12.330Z,68.00
2024-02-24T08:24:20.216Z,69.00
2024-02-24T08:25:22.216Z,69.00
2024-02-24T08:26:24.211Z,69.00
2024-02-24T08:27:26.200Z,69.00
2024-02-24T08:28:28.338Z,69.50
2024-02-24T08:29:33.052Z,71.50
2024-02-24T08:30:35.144Z,74.83
2024-02-24T08:31:37.758Z,79.00
2024-02-24T08:32:39.799Z,80.67
2024-02-24T08:33:44.935Z,79.33
2024-02-24T08:34:47.085Z,78.17
2024-02-24T08:35:49.240Z,77.67
2024-02-24T08:36:52.595Z,75.83
2024-02-24T08:37:54.658Z,70.83
2024-02-24T08:38:58.248Z,66.83
2024-02-24T08:40:00.351Z,65.00
2024-02-24T08:41:02.328Z,65.83
2024-02-24T08:42:06.918Z,67.33
2024-02-24T08:43:09.079Z,68.00
2024-02-24T08:44:11.175Z,68.50
2024-02-24T08:45:13.432Z,69.00
2024-02-24T08:46:15.563Z,69.83
2024-02-24T08:47:17.608Z,70.00
2024-02-24T08:48:19.979Z,70.17
2024-02-24T08:49:22.084Z,73.00
2024-02-24T08:50:24.520Z,80.67
2024-02-24T08:51:29.456Z,87.83
2024-02-24T08:52:38.170Z,90.17
2024-02-24T08:53:45.137Z,90.17
2024-02-24T08:54:47.106Z,90.00
2024-02-24T08:55:49.071Z,89.67
2024-02-24T08:56:51.104Z,88.50
2024-02-24T08:57:53.094Z,88.33
2024-02-24T08:58:55.074Z,91.83
2024-02-24T08:59:57.050Z,92.33
2024-02-24T09:00:59.618Z,91.00
2024-02-24T09:02:01.677Z,90.17
2024-02-24T09:03:03.706Z,88.83
2024-02-24T09:04:06.859Z,87.33
2024-02-24T09:05:09.020Z,87.67
2024-02-24T09:06:11.615Z,93.67
2024-02-24T09:07:13.952Z,93.50
2024-02-24T09:08:16.337Z,92.17
2024-02-24T09:09:18.309Z,92.00
2024-02-24T09:10:20.304Z,92.50
2024-02-24T09:11:22.309Z,94.17
2024-02-24T09:12:24.438Z,95.00
2024-02-24T09:13:26.972Z,94.00
2024-02-24T09:14:29.186Z,93.50
2024-02-24T09:15:32.463Z,93.00
2024-02-24T09:16:34.640Z,90.83
2024-02-24T09:17:36.741Z,82.83
2024-02-24T09:18:38.843Z,72.17
2024-02-24T09:19:43.997Z,65.50
2024-02-24T09:20:46.266Z,66.33
2024-02-24T09:21:48.446Z,68.83
2024-02-24T09:22:50.460Z,70.67
2024-02-24T09:23:52.531Z,71.83
2024-02-24T09:24:54.571Z,71.33
2024-02-24T09:25:56.650Z,67.17
2024-02-24T09:26:58.806Z,63.17
2024-02-24T09:28:00.850Z,58.33
2024-02-24T09:29:02.844Z,50.83
2024-02-24T09:30:05.037Z,49.50
2024-02-24T09:31:07.042Z,49.00
2024-02-24T09:32:09.005Z,49.50
2024-02-24T09:33:13.800Z,47.33
2024-02-24T09:34:17.228Z,47.00
2024-02-24T09:35:19.353Z,48.50
2024-02-24T09:36:21.354Z,49.67
2024-02-24T09:37:23.327Z,50.00
2024-02-24T09:38:25.365Z,50.00
2024-02-24T09:39:27.362Z,50.00
2024-02-24T09:40:29.595Z,49.33
2024-02-24T09:41:31.750Z,49.00
2024-02-24T09:42:34.855Z,48.83
2024-02-24T09:43:36.964Z,47.33
2024-02-24T09:44:40.018Z,47.00
2024-02-24T09:45:44.791Z,47.00
2024-02-24T09:46:47.090Z,47.83
2024-02-24T09:47:49.151Z,49.83
2024-02-24T09:48:51.293Z,52.67
2024-02-24T09:49:53.971Z,53.00
2024-02-24T09:50:56.051Z,53.00
2024-02-24T09:52:03.735Z,50.83
2024-02-24T09:53:05.775Z,46.33
2024-02-24T09:54:07.743Z,42.67
2024-02-24T09:55:10.032Z,41.00
2024-02-24T09:56:12.416Z,41.67
2024-02-24T09:57:16.964Z,40.67
2024-02-24T09:58:19.595Z,38.33
2024-02-24T09:59:23.550Z,38.00
2024-02-24T10:00:25.558Z,38.00
2024-02-24T10:01:27.578Z,38.00
2024-02-24T10:02:29.688Z,38.17
2024-02-24T10:03:31.729Z,39.00
2024-02-24T10:04:35.069Z,39.00
2024-02-24T10:05:41.261Z,38.17
2024-02-24T10:06:43.400Z,37.33
2024-02-24T10:07:46.622Z,35.50
2024-02-24T10:08:48.770Z,34.17
2024-02-24T10:09:50.846Z,34.17
2024-02-24T10:10:53.486Z,36.17
2024-02-24T10:11:55.580Z,44.83
2024-02-24T10:12:58.444Z,54.00
2024-02-24T10:14:00.409Z,59.50
2024-02-24T10:15:02.891Z,67.17
2024-02-24T10:16:07.317Z,78.67
2024-02-24T10:17:09.390Z,88.83
2024-02-24T10:18:11.530Z,97.83
2024-02-24T10:19:13.772Z,107.00
2024-02-24T10:20:15.917Z,114.17
2024-02-24T10:21:18.310Z,117.00
2024-02-24T10:22:20.369Z,120.33
2024-02-24T10:23:22.441Z,123.83
2024-02-24T10:24:25.167Z,123.67
2024-02-24T10:25:27.202Z,122.33
2024-02-24T10:26:29.320Z,119.00
2024-02-24T10:27:31.414Z,118.33
2024-02-24T10:28:34.156Z,119.83
2024-02-24T10:29:38.198Z,120.50
2024-02-24T10:30:40.723Z,122.67
2024-02-24T10:31:42.706Z,120.17
2024-02-24T10:32:44.792Z,117.83
2024-02-24T10:33:46.950Z,116.50
2024-02-24T10:34:49.064Z,115.83
2024-02-24T10:35:56.106Z,115.00
2024-02-24T10:36:59.243Z,115.00
2024-02-24T10:38:17.377Z,116.33
2024-02-24T10:39:23.361Z,119.67
2024-02-24T10:40:25.421Z,119.67
2024-02-24T10:41:29.259Z,118.17
2024-02-24T10:42:33.452Z,115.00
2024-02-24T10:43:36.137Z,112.00
2024-02-24T10:44:38.224Z,110.83
2024-02-24T10:45:40.277Z,110.00
2024-02-24T10:46:42.434Z,110.00
2024-02-24T10:47:44.448Z,110.00
2024-02-24T10:48:47.444Z,108.50
2024-02-24T10:49:49.591Z,104.83
2024-02-24T10:50:51.713Z,96.67
2024-02-24T10:51:53.778Z,89.50
2024-02-24T10:52:55.896Z,82.67
2024-02-24T10:53:59.462Z,77.67
2024-02-24T10:55:02.685Z,79.33
2024-02-24T10:56:04.913Z,82.00
2024-02-24T10:57:07.499Z,84.33
2024-02-24T10:58:10.688Z,85.33
2024-02-24T10:59:12.748Z,86.00
2024-02-24T11:00:37.758Z,86.83
2024-02-24T11:01:48.769Z,87.50
2024-02-24T11:02:51.792Z,87.67
2024-02-24T11:03:53.898Z,85.67
2024-02-24T11:04:55.906Z,83.50
2024-02-24T11:05:58.024Z,81.00
2024-02-24T11:07:02.364Z,80.67
2024-02-24T11:08:05.110Z,81.17
2024-02-24T11:09:07.299Z,82.00
2024-02-24T11:10:35.436Z,83.00
2024-02-24T11:11:37.624Z,83.00
2024-02-24T11:12:42.349Z,74.83
2024-02-24T11:13:59.468Z,63.50
2024-02-24T11:15:09.625Z,59.00
2024-02-24T11:16:11.824Z,57.33
2024-02-24T11:17:14.079Z,55.00
2024-02-24T11:18:16.640Z,55.67
2024-02-24T11:19:44.801Z,57.83
2024-02-24T11:20:47.277Z,60.33
2024-02-24T11:22:06.612Z,61.50
2024-02-24T11:23:24.071Z,64.00
2024-02-24T11:24:32.042Z,66.50
2024-02-24T11:25:34.040Z,67.00
2024-02-24T11:26:37.790Z,66.00
2024-02-24T11:27:41.938Z,64.00
2024-02-24T11:28:45.938Z,61.00
2024-02-24T11:29:47.935Z,58.33
2024-02-24T11:30:54.694Z,57.67
2024-02-24T11:32:06.143Z,55.00
2024-02-24T11:33:36.963Z,51.00
2024-02-24T11:34:39.250Z,49.00
2024-02-24T11:35:41.385Z,49.00
2024-02-24T11:36:43.410Z,48.67
2024-02-24T11:37:46.176Z,48.00
2024-02-24T11:38:48.191Z,47.50
2024-02-24T11:39:50.177Z,45.83
2024-02-24T11:41:12.369Z,43.83
2024-02-24T11:42:15.086Z,42.00
2024-02-24T11:43:17.640Z,42.00
2024-02-24T11:44:22.571Z,41.83
2024-02-24T11:45:27.119Z,39.67
2024-02-24T11:46:29.990Z,36.83
2024-02-24T11:47:34.119Z,35.17
2024-02-24T11:48:36.927Z,35.00
2024-02-24T11:49:49.961Z,35.50
2024-02-24T11:50:52.950Z,36.17
2024-02-24T11:51:54.961Z,36.83
2024-02-24T11:52:57.590Z,35.83
2024-02-24T11:53:59.914Z,35.00
2024-02-24T11:55:01.992Z,34.83
2024-02-24T11:56:04.069Z,34.00
2024-02-24T11:57:06.356Z,34.00
2024-02-24T11:58:11.003Z,34.00
2024-02-24T11:59:13.170Z,33.50
2024-02-24T12:00:15.577Z,33.00
2024-02-24T12:01:17.705Z,33.00
2024-02-24T12:02:19.748Z,32.83
2024-02-24T12:03:23.415Z,32.00
2024-02-24T12:04:28.569Z,32.00
2024-02-24T12:05:30.821Z,32.00
2024-02-24T12:06:32.920Z,32.00
2024-02-24T12:07:40.809Z,32.00
2024-02-24T12:08:44.236Z,32.00
2024-02-24T12:09:47.049Z,32.00
2024-02-24T12:10:49.898Z,32.00
2024-02-24T12:11:51.926Z,32.00
2024-02-24T12:12:55.022Z,32.00
2024-02-24T12:13:57.216Z,31.50
2024-02-24T12:14:59.224Z,31.00
2024-02-24T12:16:01.260Z,31.00
2024-02-24T12:17:06.322Z,30.00
2024-02-24T12:18:11.909Z,30.00
2024-02-24T12:19:14.674Z,30.33
2024-02-24T12:20:16.808Z,30.33
2024-02-24T12:21:18.834Z,30.00
2024-02-24T12:22:23.823Z,29.17
2024-02-24T12:23:30.253Z,29.00
2024-02-24T12:24:32.406Z,29.67
2024-02-24T12:25:34.586Z,30.00
2024-02-24T12:26:36.584Z,30.00
2024-02-24T12:27:38.732Z,30.00
2024-02-24T12:28:41.154Z,31.17
2024-02-24T12:29:43.128Z,32.67
2024-02-24T12:30:48.105Z,33.83
2024-02-24T12:31:50.143Z,34.00
2024-02-24T12:32:52.221Z,34.00
2024-02-24T12:33:57.108Z,34.00
2024-02-24T12:35:05.548Z,34.00
2024-02-24T12:36:08.351Z,34.00
2024-02-24T12:37:10.340Z,33.33
2024-02-24T12:38:17.827Z,33.00
2024-02-24T12:39:20.077Z,33.00
2024-02-24T12:40:31.728Z,33.00
2024-02-24T12:41:34.281Z,33.00
2024-02-24T12:42:40.827Z,32.83
2024-02-24T12:43:42.948Z,31.67
2024-02-24T12:44:45.106Z,29.83
2024-02-24T12:45:47.779Z,27.83
2024-02-24T12:46:49.778Z,26.17
2024-02-24T12:47:52.181Z,24.67
2024-02-24T12:48:56.180Z,23.33
2024-02-24T12:49:58.444Z,21.67
2024-02-24T12:51:00.983Z,20.67
2024-02-24T12:52:03.509Z,20.00
2024-02-24T12:53:06.488Z,20.00
2024-02-24T12:54:08.491Z,20.50
2024-02-24T12:55:10.476Z,21.17
2024-02-24T12:56:12.613Z,24.17
2024-02-24T12:57:14.669Z,34.33
2024-02-24T12:58:16.658Z,41.50
2024-02-24T12:59:20.144Z,44.00
2024-02-24T13:00:24.072Z,44.67
2024-02-24T13:01:26.295Z,44.00
2024-02-24T13:02:30.104Z,43.00
2024-02-24T13:03:32.213Z,43.00
2024-02-24T13:04:34.583Z,43.00
2024-02-24T13:05:36.596Z,44.17
2024-02-24T13:06:38.790Z,48.50
2024-02-24T13:07:41.048Z,56.00
2024-02-24T13:08:43.136Z,62.83
2024-02-24T13:09:45.144Z,63.83
2024-02-24T13:10:48.856Z,62.67
2024-02-24T13:11:51.293Z,58.83
2024-02-24T13:12:53.279Z,56.00
2024-02-24T13:13:55.267Z,52.00
2024-02-24T13:14:57.368Z,49.00
2024-02-24T13:15:59.428Z,46.50